Time;durP1;ratioP1;P1;durP2;ratioP2;P2;SDS_P1;SDS_P2;PMS_P1;PMS_P2;Temp;Humidity;BMP_temperature;BMP_pressure;BME280_temperature;BME280_humidity;BME280_pressure;Samples;Min_cycle;Max_cycle;Signal;HPM_P1;HPM_P2
2023/07/16 00:01:48;;;;;;;6.47;3.40;;;;;;;;;;5084976;28;20506;-73
2023/07/16 00:04:19;;;;;;;7.78;3.20;;;;;;;;;;5085599;28;20502;-73
2023/07/16 00:06:50;;;;;;;4.40;2.55;;;;;;;;;;5084284;28;20040;-73
2023/07/16 00:09:20;;;;;;;4.20;2.17;;;;;;;;;;5082085;28;20051;-74
2023/07/16 00:11:51;;;;;;;3.70;1.73;;;;;;;;;;5083985;28;20048;-74
2023/07/16 00:14:22;;;;;;;2.67;1.80;;;;;;;;;;5082211;28;20438;-72
2023/07/16 00:16:53;;;;;;;5.18;2.03;;;;;;;;;;5082225;28;20044;-73
2023/07/16 00:19:24;;;;;;;3.55;1.60;;;;;;;;;;5084023;28;20036;-73
2023/07/16 00:21:55;;;;;;;4.85;1.45;;;;;;;;;;5065701;28;20054;-74
2023/07/16 00:24:27;;;;;;;4.00;1.70;;;;;;;;;;5083761;28;20474;-73
2023/07/16 00:26:58;;;;;;;3.15;1.73;;;;;;;;;;5080993;28;20063;-74
2023/07/16 00:29:28;;;;;;;5.50;1.65;;;;;;;;;;5084264;28;20490;-74
2023/07/16 00:31:59;;;;;;;3.28;1.50;;;;;;;;;;5082015;28;20060;-73
2023/07/16 00:34:30;;;;;;;3.65;1.33;;;;;;;;;;5082520;28;20044;-73
2023/07/16 00:37:02;;;;;;;2.95;1.13;;;;;;;;;;5081242;28;20094;-74
2023/07/16 00:39:33;;;;;;;3.65;1.40;;;;;;;;;;5089639;28;20052;-73
2023/07/16 00:42:04;;;;;;;1.65;1.35;;;;;;;;;;5094433;28;20063;-74
2023/07/16 00:44:35;;;;;;;3.25;2.22;;;;;;;;;;5088465;28;20059;-73
2023/07/16 00:47:06;;;;;;;3.67;2.67;;;;;;;;;;5081656;28;20055;-74
2023/07/16 00:49:37;;;;;;;7.03;2.80;;;;;;;;;;5084588;28;20040;-74
2023/07/16 00:52:12;;;;;;;4.68;2.42;;;;;;;;;;5080549;28;20052;-74
2023/07/16 00:54:42;;;;;;;4.65;2.13;;;;;;;;;;5081198;28;20623;-74
2023/07/16 00:57:13;;;;;;;5.07;1.52;;;;;;;;;;5083615;28;20051;-74
2023/07/16 00:59:44;;;;;;;4.20;2.47;;;;;;;;;;5081308;28;20055;-74
2023/07/16 01:02:15;;;;;;;6.18;2.67;;;;;;;;;;5081497;28;20052;-74
2023/07/16 01:04:45;;;;;;;8.35;2.42;;;;;;;;;;5080882;28;20043;-77
2023/07/16 01:07:17;;;;;;;3.92;2.30;;;;;;;;;;5083314;28;20051;-74
2023/07/16 01:09:48;;;;;;;2.85;2.03;;;;;;;;;;5084434;28;20048;-74
2023/07/16 01:12:23;;;;;;;5.57;2.85;;;;;;;;;;5087701;28;20055;-74
2023/07/16 01:14:56;;;;;;;9.07;3.70;;;;;;;;;;5087622;28;20032;-74
2023/07/16 01:17:26;;;;;;;4.75;3.03;;;;;;;;;;5087917;28;20055;-75
2023/07/16 01:19:57;;;;;;;7.47;3.35;;;;;;;;;;5087281;28;20059;-74
2023/07/16 01:22:49;;;;;;;6.50;3.60;;;;;;;;;;5087927;28;20055;-75
2023/07/16 01:25:59;;;;;;;5.50;3.58;;;;;;;;;;5087726;28;20056;-74
2023/07/16 01:28:47;;;;;;;8.90;4.50;;;;;;;;;;5088061;28;20044;-75
2023/07/16 01:31:18;;;;;;;;;;;;;;;;;;5086506;28;20056;-74
2023/07/16 01:33:56;;;;;;;7.80;4.45;;;;;;;;;;5087782;28;19924;-74
2023/07/16 01:36:28;;;;;;;8.27;4.63;;;;;;;;;;5087920;28;20046;-75
2023/07/16 01:38:59;;;;;;;7.05;4.10;;;;;;;;;;5087533;28;20503;-74
2023/07/16 01:41:30;;;;;;;9.10;3.83;;;;;;;;;;5086510;28;20502;-74
2023/07/16 01:44:00;;;;;;;6.60;3.83;;;;;;;;;;5086206;28;20059;-74
2023/07/16 01:46:32;;;;;;;7.32;3.95;;;;;;;;;;5084455;28;20609;-75
2023/07/16 01:49:05;;;;;;;8.98;4.57;;;;;;;;;;5084881;28;20052;-74
2023/07/16 01:51:37;;;;;;;7.93;4.65;;;;;;;;;;5083660;28;20063;-74
2023/07/16 01:54:08;;;;;;;9.50;4.32;;;;;;;;;;5085867;28;20044;-74
2023/07/16 01:56:38;;;;;;;8.63;3.92;;;;;;;;;;5086747;28;20048;-74
2023/07/16 01:59:10;;;;;;;6.10;3.88;;;;;;;;;;5084323;28;20059;-74
2023/07/16 02:01:41;;;;;;;7.15;4.30;;;;;;;;;;5087279;28;20395;-74
2023/07/16 02:04:12;;;;;;;6.70;4.35;;;;;;;;;;5087070;28;20048;-74
2023/07/16 02:06:43;;;;;;;8.20;4.13;;;;;;;;;;5084830;28;20055;-74
2023/07/16 02:09:14;;;;;;;10.63;4.25;;;;;;;;;;5086615;28;20048;-74
2023/07/16 02:11:43;;;;;;;;;;;;;;;;;;5085273;28;20427;-74
2023/07/16 02:14:15;;;;;;;10.13;4.38;;;;;;;;;;5086932;28;19924;-74
2023/07/16 02:16:46;;;;;;;7.55;4.38;;;;;;;;;;5084650;28;20052;-74
2023/07/16 02:19:17;;;;;;;11.43;4.38;;;;;;;;;;5084216;28;20051;-74
2023/07/16 02:21:47;;;;;;;9.13;4.97;;;;;;;;;;5085467;28;20052;-74
2023/07/16 02:24:17;;;;;;;7.80;5.20;;;;;;;;;;5084497;28;20059;-75
2023/07/16 02:26:46;;;;;;;;;;;;;;;;;;5084825;28;20063;-74
2023/07/16 02:29:17;;;;;;;13.80;8.32;;;;;;;;;;5087123;28;19935;-75
2023/07/16 02:31:48;;;;;;;15.43;8.50;;;;;;;;;;5086488;28;20052;-74
2023/07/16 02:34:18;;;;;;;11.30;7.28;;;;;;;;;;5086261;28;20048;-74
2023/07/16 02:36:48;;;;;;;;;;;;;;;;;;5086469;28;20122;-74
2023/07/16 02:39:18;;;;;;;10.68;6.05;;;;;;;;;;5086105;28;19924;-75
2023/07/16 02:41:51;;;;;;;9.80;4.97;;;;;;;;;;5086117;28;20040;-74
2023/07/16 02:44:21;;;;;;;7.90;4.03;;;;;;;;;;5085857;28;20051;-74
2023/07/16 02:46:52;;;;;;;7.60;3.80;;;;;;;;;;5084156;28;20059;-74
2023/07/16 02:49:22;;;;;;;11.13;4.20;;;;;;;;;;5086485;28;20044;-75
2023/07/16 02:51:53;;;;;;;10.93;4.28;;;;;;;;;;5085630;28;20055;-74
2023/07/16 02:54:24;;;;;;;7.80;3.63;;;;;;;;;;5085817;28;20052;-74
2023/07/16 02:56:55;;;;;;;5.63;3.70;;;;;;;;;;5085154;28;20059;-74
2023/07/16 02:59:24;;;;;;;6.90;3.80;;;;;;;;;;5083389;28;20056;-74
2023/07/16 03:01:55;;;;;;;8.68;3.78;;;;;;;;;;5084482;28;20054;-74
2023/07/16 03:04:26;;;;;;;4.82;3.33;;;;;;;;;;5083702;28;20055;-74
2023/07/16 03:06:56;;;;;;;7.60;3.47;;;;;;;;;;5085711;28;20535;-74
2023/07/16 03:09:26;;;;;;;8.02;3.42;;;;;;;;;;5085336;28;20059;-74
2023/07/16 03:11:57;;;;;;;6.78;3.50;;;;;;;;;;5083948;28;20406;-74
2023/07/16 03:14:26;;;;;;;;;;;;;;;;;;5084482;28;20048;-74
2023/07/16 03:16:58;;;;;;;5.50;3.72;;;;;;;;;;5083411;28;19931;-74
2023/07/16 03:19:28;;;;;;;11.02;4.72;;;;;;;;;;5083868;28;21098;-74
2023/07/16 03:21:59;;;;;;;12.90;5.25;;;;;;;;;;5085106;28;20044;-74
2023/07/16 03:24:30;;;;;;;9.45;4.55;;;;;;;;;;5083196;28;20048;-74
2023/07/16 03:27:01;;;;;;;8.50;3.88;;;;;;;;;;5083604;28;20056;-74
2023/07/16 03:29:47;;;;;;;7.00;4.05;;;;;;;;;;5085269;28;21177;-74
2023/07/16 03:32:19;;;;;;;7.63;4.97;;;;;;;;;;5083586;28;20064;-74
2023/07/16 03:34:50;;;;;;;7.30;4.47;;;;;;;;;;5083144;28;20047;-74
2023/07/16 03:37:21;;;;;;;10.82;5.10;;;;;;;;;;5082966;28;20058;-74
2023/07/16 03:39:52;;;;;;;10.93;4.93;;;;;;;;;;5083186;28;20056;-74
2023/07/16 03:42:22;;;;;;;;;;;;;;;;;;5082908;28;20535;-74
2023/07/16 03:44:53;;;;;;;8.15;4.53;;;;;;;;;;5083409;28;19927;-74
2023/07/16 03:47:23;;;;;;;7.25;4.20;;;;;;;;;;5084962;28;20051;-74
2023/07/16 03:49:54;;;;;;;8.95;3.70;;;;;;;;;;5083539;28;20059;-74
2023/07/16 03:52:26;;;;;;;8.93;3.60;;;;;;;;;;5085124;28;20047;-74
2023/07/16 03:54:56;;;;;;;5.50;3.03;;;;;;;;;;5082572;28;20052;-74
2023/07/16 03:57:30;;;;;;;6.70;3.50;;;;;;;;;;5082303;28;20051;-74
2023/07/16 04:00:02;;;;;;;8.15;3.28;;;;;;;;;;5083270;28;20055;-74
2023/07/16 04:02:41;;;;;;;6.40;4.25;;;;;;;;;;5088626;28;20059;-74
2023/07/16 04:05:18;;;;;;;8.00;4.38;;;;;;;;;;5083220;28;20048;-74
2023/07/16 04:07:52;;;;;;;9.10;4.03;;;;;;;;;;5084988;28;20048;-74
2023/07/16 04:10:23;;;;;;;8.55;4.60;;;;;;;;;;5085168;28;20048;-74
2023/07/16 04:12:52;;;;;;;;;;;;;;;;;;5085027;28;20052;-74
2023/07/16 04:15:22;;;;;;;10.23;4.35;;;;;;;;;;5084898;28;19931;-74
2023/07/16 04:17:54;;;;;;;5.80;3.58;;;;;;;;;;5085136;28;20785;-74
2023/07/16 04:20:26;;;;;;;5.22;3.47;;;;;;;;;;5084440;28;20052;-74
2023/07/16 04:22:58;;;;;;;5.93;4.28;;;;;;;;;;5084716;28;20040;-74
2023/07/16 04:25:28;;;;;;;8.48;3.88;;;;;;;;;;5084938;28;20047;-74
2023/07/16 04:27:58;;;;;;;;;;;;;;;;;;5085140;28;20044;-74
2023/07/16 04:30:28;;;;;;;8.68;3.63;;;;;;;;;;5100099;28;20425;-74
2023/07/16 04:32:58;;;;;;;4.53;3.45;;;;;;;;;;5082909;28;20417;-74
2023/07/16 04:35:28;;;;;;;6.45;3.95;;;;;;;;;;5084790;28;20040;-74
2023/07/16 04:37:58;;;;;;;5.35;3.58;;;;;;;;;;5085305;28;20048;-74
2023/07/16 04:40:32;;;;;;;8.10;4.03;;;;;;;;;;5084713;28;20433;-74
2023/07/16 04:43:04;;;;;;;6.13;3.80;;;;;;;;;;5084410;28;20490;-74
2023/07/16 04:45:34;;;;;;;6.28;3.60;;;;;;;;;;5087185;28;20048;-74
2023/07/16 04:48:05;;;;;;;6.82;3.75;;;;;;;;;;5088443;28;20055;-74
2023/07/16 04:50:35;;;;;;;8.70;3.55;;;;;;;;;;5088409;28;20062;-74
2023/07/16 04:53:05;;;;;;;7.68;4.38;;;;;;;;;;5088918;28;20518;-74
2023/07/16 04:55:42;;;;;;;11.68;5.30;;;;;;;;;;5088083;28;20050;-74
2023/07/16 04:58:13;;;;;;;9.45;4.65;;;;;;;;;;5086784;28;20051;-74
2023/07/16 05:00:43;;;;;;;7.03;4.40;;;;;;;;;;5088141;28;20494;-74
2023/07/16 05:03:13;;;;;;;8.82;4.15;;;;;;;;;;5088151;28;20059;-74
2023/07/16 05:05:44;;;;;;;8.52;4.03;;;;;;;;;;5088303;28;20044;-74
2023/07/16 05:08:17;;;;;;;11.25;4.75;;;;;;;;;;5087493;28;20040;-74
2023/07/16 05:10:47;;;;;;;8.30;5.28;;;;;;;;;;5088447;28;20044;-74
2023/07/16 05:13:18;;;;;;;9.38;5.53;;;;;;;;;;5088268;28;20753;-74
2023/07/16 05:15:49;;;;;;;9.95;4.60;;;;;;;;;;5087686;28;20512;-74
2023/07/16 05:18:21;;;;;;;7.30;4.82;;;;;;;;;;5087656;28;20047;-74
2023/07/16 05:20:51;;;;;;;6.93;4.28;;;;;;;;;;5087063;28;20058;-74
2023/07/16 05:23:21;;;;;;;;;;;;;;;;;;5088060;28;20114;-74
2023/07/16 05:25:51;;;;;;;7.47;4.57;;;;;;;;;;5087499;28;20381;-74
2023/07/16 05:28:22;;;;;;;13.68;5.07;;;;;;;;;;5086696;28;20055;-74
2023/07/16 05:31:01;;;;;;;9.32;5.22;;;;;;;;;;5087637;28;20044;-74
2023/07/16 05:33:31;;;;;;;8.45;4.20;;;;;;;;;;5086947;28;20494;-73
2023/07/16 05:36:01;;;;;;;;;;;;;;;;;;5088435;28;20079;-74
2023/07/16 05:38:31;;;;;;;11.32;5.40;;;;;;;;;;5087496;28;19920;-74
2023/07/16 05:41:04;;;;;;;;;;;;;;;;;;5088025;28;20044;-73
2023/07/16 05:43:35;;;;;;;7.10;4.78;;;;;;;;;;5087619;28;19920;-74
2023/07/16 05:46:07;;;;;;;9.35;5.30;;;;;;;;;;5087038;28;20055;-74
2023/07/16 05:48:37;;;;;;;7.45;4.68;;;;;;;;;;5087242;28;20044;-74
2023/07/16 05:51:07;;;;;;;;;;;;;;;;;;5087485;28;20058;-74
2023/07/16 05:53:38;;;;;;;6.53;4.13;;;;;;;;;;5087307;28;19924;-74
2023/07/16 05:56:08;;;;;;;8.55;4.25;;;;;;;;;;5085948;28;20051;-75
2023/07/16 05:58:39;;;;;;;6.93;3.88;;;;;;;;;;5085960;28;20411;-75
2023/07/16 06:01:11;;;;;;;9.00;5.13;;;;;;;;;;5087449;28;20052;-74
2023/07/16 06:03:41;;;;;;;7.07;4.53;;;;;;;;;;5084748;28;20052;-74
2023/07/16 06:06:12;;;;;;;11.38;4.55;;;;;;;;;;5086709;28;20052;-73
2023/07/16 06:08:43;;;;;;;9.18;4.85;;;;;;;;;;5085271;28;20040;-74
2023/07/16 06:11:13;;;;;;;9.93;4.95;;;;;;;;;;5086690;28;20067;-74
2023/07/16 06:13:44;;;;;;;10.38;5.88;;;;;;;;;;5086725;28;20055;-74
2023/07/16 06:16:15;;;;;;;9.27;5.38;;;;;;;;;;5087065;28;20048;-74
2023/07/16 06:18:45;;;;;;;8.80;5.18;;;;;;;;;;5087253;28;20048;-74
2023/07/16 06:21:16;;;;;;;9.60;5.55;;;;;;;;;;5086247;28;20032;-75
2023/07/16 06:23:47;;;;;;;8.55;5.28;;;;;;;;;;5084821;28;20052;-75
2023/07/16 06:26:18;;;;;;;9.50;6.00;;;;;;;;;;5086299;28;20071;-74
2023/07/16 06:28:49;;;;;;;13.05;8.35;;;;;;;;;;5086332;28;20075;-75
2023/07/16 06:31:20;;;;;;;12.60;7.78;;;;;;;;;;5086612;28;20502;-75
2023/07/16 06:33:55;;;;;;;13.35;8.18;;;;;;;;;;5086580;28;20043;-74
2023/07/16 06:36:25;;;;;;;15.68;8.68;;;;;;;;;;5086745;28;20070;-75
2023/07/16 06:38:55;;;;;;;11.40;8.05;;;;;;;;;;5086708;28;20411;-74
2023/07/16 06:41:26;;;;;;;15.52;9.23;;;;;;;;;;5086061;28;20098;-75
2023/07/16 06:43:57;;;;;;;14.23;9.23;;;;;;;;;;5086138;28;20514;-75
2023/07/16 06:46:27;;;;;;;12.45;8.43;;;;;;;;;;5086195;28;20055;-74
2023/07/16 06:48:57;;;;;;;15.50;8.38;;;;;;;;;;5086140;28;20421;-74
2023/07/16 06:51:30;;;;;;;11.27;7.55;;;;;;;;;;5086436;28;20048;-74
2023/07/16 06:54:01;;;;;;;14.38;8.55;;;;;;;;;;5086012;28;20048;-74
2023/07/16 06:56:31;;;;;;;11.35;7.03;;;;;;;;;;5083939;28;20633;-74
2023/07/16 06:59:01;;;;;;;8.65;5.60;;;;;;;;;;5085760;28;20051;-74
2023/07/16 07:01:31;;;;;;;9.32;5.72;;;;;;;;;;5085661;28;20055;-75
2023/07/16 07:04:02;;;;;;;17.33;9.52;;;;;;;;;;5086158;28;20071;-74
2023/07/16 07:06:33;;;;;;;11.85;7.28;;;;;;;;;;5085609;28;20640;-74
2023/07/16 07:09:04;;;;;;;14.10;8.77;;;;;;;;;;5085878;28;20054;-75
2023/07/16 07:11:34;;;;;;;15.30;9.50;;;;;;;;;;5085522;28;20063;-74
2023/07/16 07:14:04;;;;;;;;;;;;;;;;;;5086163;28;20056;-74
2023/07/16 07:16:35;;;;;;;16.35;9.38;;;;;;;;;;5085347;28;19931;-74
2023/07/16 07:19:05;;;;;;;17.52;10.43;;;;;;;;;;5085427;28;20040;-74
2023/07/16 07:21:37;;;;;;;18.27;11.48;;;;;;;;;;5085191;28;20054;-74
2023/07/16 07:24:07;;;;;;;19.90;11.32;;;;;;;;;;5085740;28;20418;-75
2023/07/16 07:26:37;;;;;;;17.27;10.60;;;;;;;;;;5084464;28;20056;-75
2023/07/16 07:29:07;;;;;;;18.00;11.02;;;;;;;;;;5083783;28;20055;-74
2023/07/16 07:31:38;;;;;;;19.40;11.73;;;;;;;;;;5085520;28;20434;-73
2023/07/16 07:34:09;;;;;;;21.17;11.93;;;;;;;;;;5085221;28;20387;-74
2023/07/16 07:36:39;;;;;;;20.30;11.68;;;;;;;;;;5084161;28;20055;-74
2023/07/16 07:39:09;;;;;;;20.67;12.38;;;;;;;;;;5085402;28;20090;-74
2023/07/16 07:41:40;;;;;;;17.55;11.20;;;;;;;;;;5085622;28;20124;-74
2023/07/16 07:44:11;;;;;;;18.23;10.73;;;;;;;;;;5085191;28;20059;-74
2023/07/16 07:46:41;;;;;;;21.20;11.13;;;;;;;;;;5085063;28;20051;-74
2023/07/16 07:49:14;;;;;;;19.58;11.70;;;;;;;;;;5084991;28;20138;-74
2023/07/16 07:51:47;;;;;;;18.17;11.45;;;;;;;;;;5084801;28;21093;-74
2023/07/16 07:54:17;;;;;;;18.02;10.38;;;;;;;;;;5085012;28;20055;-74
2023/07/16 07:56:48;;;;;;;18.73;10.10;;;;;;;;;;5085277;28;20051;-74
2023/07/16 07:59:19;;;;;;;20.85;10.52;;;;;;;;;;5084934;28;20533;-74
2023/07/16 08:01:49;;;;;;;;;;;;;;;;;;5085388;28;20048;-74
2023/07/16 08:04:19;;;;;;;18.20;10.10;;;;;;;;;;5084895;28;19931;-74
2023/07/16 08:06:50;;;;;;;18.05;10.13;;;;;;;;;;5085029;28;20048;-74
2023/07/16 08:09:20;;;;;;;15.98;9.90;;;;;;;;;;5083282;28;20047;-74
2023/07/16 08:11:50;;;;;;;19.08;10.35;;;;;;;;;;5084553;28;20519;-74
2023/07/16 08:14:20;;;;;;;16.13;9.35;;;;;;;;;;5083380;28;20422;-74
2023/07/16 08:16:51;;;;;;;14.32;9.60;;;;;;;;;;5084616;28;20063;-74
2023/07/16 08:19:23;;;;;;;14.98;9.52;;;;;;;;;;5085819;28;20501;-74
2023/07/16 08:21:53;;;;;;;16.08;9.90;;;;;;;;;;5088696;28;20485;-74
2023/07/16 08:24:22;;;;;;;;;;;;;;;;;;5089270;28;20048;-74
2023/07/16 08:26:52;;;;;;;15.38;9.05;;;;;;;;;;5089078;28;19931;-74
2023/07/16 08:29:22;;;;;;;;;;;;;;;;;;5087389;28;20051;-74
2023/07/16 08:31:53;;;;;;;16.30;9.15;;;;;;;;;;5088921;28;19930;-74
2023/07/16 08:34:23;;;;;;;15.20;9.80;;;;;;;;;;5089042;28;20079;-74
2023/07/16 08:36:53;;;;;;;;;;;;;;;;;;5089696;28;20051;-73
2023/07/16 08:39:23;;;;;;;15.60;8.98;;;;;;;;;;5088496;28;19924;-74
2023/07/16 08:41:55;;;;;;;15.25;9.48;;;;;;;;;;5088262;28;20044;-74
2023/07/16 08:44:28;;;;;;;14.77;8.90;;;;;;;;;;5088213;28;20059;-74
2023/07/16 08:46:59;;;;;;;15.45;10.00;;;;;;;;;;5088398;28;20051;-74
2023/07/16 08:49:30;;;;;;;14.85;9.65;;;;;;;;;;5088529;28;20044;-74
2023/07/16 08:52:03;;;;;;;20.80;11.25;;;;;;;;;;5088411;28;20052;-74
2023/07/16 08:54:33;;;;;;;15.63;9.60;;;;;;;;;;5088682;28;20056;-74
2023/07/16 08:57:03;;;;;;;17.42;10.07;;;;;;;;;;5088385;28;20426;-74
2023/07/16 08:59:33;;;;;;;21.02;10.55;;;;;;;;;;5087844;28;20048;-74
2023/07/16 09:02:04;;;;;;;18.25;11.18;;;;;;;;;;5088366;28;20052;-73
2023/07/16 09:04:35;;;;;;;23.30;11.45;;;;;;;;;;5088586;28;20627;-75
2023/07/16 09:07:05;;;;;;;15.88;10.70;;;;;;;;;;5087776;28;20052;-74
2023/07/16 09:09:35;;;;;;;16.30;10.95;;;;;;;;;;5087403;28;20048;-74
2023/07/16 09:12:06;;;;;;;16.08;11.00;;;;;;;;;;5087904;28;20048;-74
2023/07/16 09:14:37;;;;;;;17.20;10.18;;;;;;;;;;5087386;28;20055;-74
2023/07/16 09:17:09;;;;;;;16.38;10.48;;;;;;;;;;5088244;28;20410;-73
2023/07/16 09:19:39;;;;;;;18.13;10.27;;;;;;;;;;5088104;28;20044;-74
2023/07/16 09:22:09;;;;;;;16.60;9.80;;;;;;;;;;5087698;28;20051;-73
2023/07/16 09:24:39;;;;;;;18.17;10.82;;;;;;;;;;5087367;28;20075;-74
2023/07/16 09:27:13;;;;;;;17.80;10.15;;;;;;;;;;5087429;28;20520;-74
2023/07/16 09:29:45;;;;;;;14.25;9.57;;;;;;;;;;5087404;28;20055;-74
2023/07/16 09:32:17;;;;;;;19.40;11.20;;;;;;;;;;5086679;28;20510;-74
2023/07/16 09:34:50;;;;;;;15.93;9.98;;;;;;;;;;5086375;28;20554;-74
2023/07/16 09:37:21;;;;;;;16.63;9.80;;;;;;;;;;5088023;28;20059;-74
2023/07/16 09:39:53;;;;;;;19.83;10.77;;;;;;;;;;5087509;28;20044;-74
2023/07/16 09:42:24;;;;;;;20.50;10.95;;;;;;;;;;5086712;28;20059;-74
2023/07/16 09:44:56;;;;;;;19.85;10.88;;;;;;;;;;5087110;28;20476;-74
2023/07/16 09:47:27;;;;;;;17.05;11.30;;;;;;;;;;5086864;28;20036;-74
2023/07/16 09:49:58;;;;;;;18.05;11.68;;;;;;;;;;5087715;28;20395;-74
2023/07/16 09:52:28;;;;;;;22.88;11.77;;;;;;;;;;5087446;28;20059;-74
2023/07/16 09:55:02;;;;;;;21.90;11.85;;;;;;;;;;5087495;28;20506;-74
2023/07/16 09:57:43;;;;;;;18.02;11.25;;;;;;;;;;5087082;28;20055;-75
2023/07/16 10:00:17;;;;;;;17.52;11.60;;;;;;;;;;5086709;28;20044;-73
2023/07/16 10:02:48;;;;;;;18.65;11.60;;;;;;;;;;5087340;28;20055;-74
2023/07/16 10:05:24;;;;;;;18.33;11.18;;;;;;;;;;5087000;28;20052;-74
2023/07/16 10:08:00;;;;;;;22.30;12.52;;;;;;;;;;5087029;28;20505;-74
2023/07/16 10:10:40;;;;;;;17.83;11.63;;;;;;;;;;5086844;28;20513;-74
2023/07/16 10:13:14;;;;;;;19.73;11.40;;;;;;;;;;5087042;28;20414;-73
2023/07/16 10:15:55;;;;;;;18.92;11.57;;;;;;;;;;5086582;28;20052;-73
2023/07/16 10:18:34;;;;;;;;;;;;;;;;;;5087415;28;20044;-74
2023/07/16 10:21:07;;;;;;;19.73;10.82;;;;;;;;;;5086391;28;19935;-74
2023/07/16 10:23:39;;;;;;;20.33;11.77;;;;;;;;;;5084876;28;20052;-73
2023/07/16 10:26:15;;;;;;;20.33;11.63;;;;;;;;;;5086696;28;20406;-74
2023/07/16 10:28:49;;;;;;;21.70;11.45;;;;;;;;;;5086543;28;20036;-73
2023/07/16 10:31:25;;;;;;;19.00;11.70;;;;;;;;;;5086289;28;20044;-73
2023/07/16 10:34:07;;;;;;;19.58;11.82;;;;;;;;;;5086699;28;20451;-74
2023/07/16 10:36:39;;;;;;;18.42;11.50;;;;;;;;;;5086163;28;20048;-74
2023/07/16 10:39:10;;;;;;;21.38;11.50;;;;;;;;;;5086415;28;20417;-74
2023/07/16 10:41:41;;;;;;;19.13;10.68;;;;;;;;;;5086167;28;20040;-74
2023/07/16 10:44:15;;;;;;;18.85;11.68;;;;;;;;;;5084997;28;20056;-74
2023/07/16 10:46:46;;;;;;;19.85;11.07;;;;;;;;;;5086188;28;20059;-73
2023/07/16 10:49:15;;;;;;;;;;;;;;;;;;5085310;28;20528;-74
2023/07/16 10:51:46;;;;;;;15.10;10.68;;;;;;;;;;5086275;28;20325;-74
2023/07/16 10:54:16;;;;;;;21.02;10.30;;;;;;;;;;5086100;28;20051;-74
2023/07/16 10:56:48;;;;;;;21.27;11.23;;;;;;;;;;5085796;28;20052;-73
2023/07/16 10:59:18;;;;;;;17.85;10.82;;;;;;;;;;5067680;28;20048;-74
2023/07/16 11:01:49;;;;;;;19.73;10.90;;;;;;;;;;5085627;28;20048;-74
2023/07/16 11:04:21;;;;;;;14.77;10.27;;;;;;;;;;5085761;28;20048;-74
2023/07/16 11:06:51;;;;;;;16.08;11.02;;;;;;;;;;5085446;28;20047;-74
2023/07/16 11:09:20;;;;;;;;;;;;;;;;;;5085981;28;20055;-73
2023/07/16 11:11:51;;;;;;;16.55;10.25;;;;;;;;;;5084572;28;19928;-73
2023/07/16 11:14:21;;;;;;;;;;;;;;;;;;5084307;28;20429;-75
2023/07/16 11:16:52;;;;;;;18.52;10.90;;;;;;;;;;5100765;28;20600;-74
2023/07/16 11:19:22;;;;;;;17.33;10.43;;;;;;;;;;5085627;28;20063;-73
2023/07/16 11:21:53;;;;;;;18.30;11.13;;;;;;;;;;5085438;28;20063;-74
2023/07/16 11:24:26;;;;;;;19.55;10.82;;;;;;;;;;5085619;28;20059;-74
2023/07/16 11:26:57;;;;;;;17.42;10.70;;;;;;;;;;5085291;28;20048;-73
2023/07/16 11:29:36;;;;;;;16.23;10.63;;;;;;;;;;5085696;28;20051;-74
2023/07/16 11:32:07;;;;;;;21.27;10.88;;;;;;;;;;5085856;28;20044;-74
2023/07/16 11:34:37;;;;;;;19.10;10.80;;;;;;;;;;5085332;28;20418;-74
2023/07/16 11:37:11;;;;;;;18.23;10.43;;;;;;;;;;5084959;28;20051;-74
2023/07/16 11:39:43;;;;;;;17.70;10.70;;;;;;;;;;5085777;28;20063;-74
2023/07/16 11:42:12;;;;;;;;;;;;;;;;;;5085652;28;20043;-74
2023/07/16 11:44:43;;;;;;;17.52;8.95;;;;;;;;;;5085494;28;19927;-74
2023/07/16 11:47:14;;;;;;;21.15;10.43;;;;;;;;;;5083407;28;20063;-74
2023/07/16 11:49:52;;;;;;;18.60;9.60;;;;;;;;;;5085219;28;20059;-74
2023/07/16 11:52:27;;;;;;;16.65;10.13;;;;;;;;;;5084809;28;20040;-74
2023/07/16 11:55:00;;;;;;;13.18;9.30;;;;;;;;;;5084328;28;20055;-74
2023/07/16 11:57:30;;;;;;;15.95;10.32;;;;;;;;;;5085016;28;20055;-74
2023/07/16 12:00:01;;;;;;;16.10;9.63;;;;;;;;;;5085161;28;20044;-74
2023/07/16 12:02:31;;;;;;;18.42;11.18;;;;;;;;;;5086780;28;20600;-74
2023/07/16 12:05:04;;;;;;;18.45;9.90;;;;;;;;;;5085382;28;20513;-73
2023/07/16 12:07:37;;;;;;;18.25;9.50;;;;;;;;;;5084827;28;20056;-74
2023/07/16 12:10:08;;;;;;;13.95;9.25;;;;;;;;;;5085304;28;20410;-74
2023/07/16 12:12:38;;;;;;;13.82;9.10;;;;;;;;;;5085138;28;20052;-74
2023/07/16 12:15:09;;;;;;;16.05;9.68;;;;;;;;;;5084770;28;20087;-76
2023/07/16 12:17:39;;;;;;;15.75;8.52;;;;;;;;;;5084909;28;20055;-74
2023/07/16 12:20:11;;;;;;;12.45;8.60;;;;;;;;;;5085186;28;20517;-75
2023/07/16 12:22:43;;;;;;;15.05;8.55;;;;;;;;;;5084931;28;20048;-74
2023/07/16 12:25:12;;;;;;;;;;;;;;;;;;5085550;28;20047;-73
2023/07/16 12:27:42;;;;;;;16.52;8.85;;;;;;;;;;5084671;28;19920;-75
2023/07/16 12:30:13;;;;;;;;;;;;;;;;;;5083166;28;20498;-74
2023/07/16 12:32:44;;;;;;;13.15;8.10;;;;;;;;;;5084993;28;20422;-73
2023/07/16 12:35:14;;;;;;;18.88;9.57;;;;;;;;;;5085239;28;20052;-74
2023/07/16 12:37:44;;;;;;;;;;;;;;;;;;5085387;28;20083;-74
2023/07/16 12:40:14;;;;;;;13.95;8.65;;;;;;;;;;5084397;28;19920;-74
2023/07/16 12:42:45;;;;;;;13.15;8.50;;;;;;;;;;5084335;28;20067;-77
2023/07/16 12:45:16;;;;;;;15.07;8.95;;;;;;;;;;5084608;28;20499;-73
2023/07/16 12:47:47;;;;;;;12.75;8.55;;;;;;;;;;5084743;28;20054;-74
2023/07/16 12:50:18;;;;;;;11.35;7.28;;;;;;;;;;5083184;28;20056;-74
2023/07/16 12:52:49;;;;;;;14.27;7.82;;;;;;;;;;5084822;28;20509;-74
2023/07/16 12:55:20;;;;;;;13.43;7.82;;;;;;;;;;5084976;28;20044;-74
2023/07/16 12:57:50;;;;;;;16.33;8.02;;;;;;;;;;5084465;28;20055;-74
2023/07/16 13:00:20;;;;;;;19.58;7.72;;;;;;;;;;5084322;28;20521;-74
2023/07/16 13:03:04;;;;;;;12.82;7.15;;;;;;;;;;5084632;28;20495;-75
2023/07/16 13:05:39;;;;;;;13.32;7.50;;;;;;;;;;5083654;28;20421;-76
2023/07/16 13:08:10;;;;;;;11.48;6.95;;;;;;;;;;5089092;28;20040;-76
2023/07/16 13:10:41;;;;;;;14.23;7.13;;;;;;;;;;5088499;28;20047;-75
2023/07/16 13:13:12;;;;;;;12.63;6.35;;;;;;;;;;5085524;28;20052;-75
2023/07/16 13:15:45;;;;;;;11.80;7.15;;;;;;;;;;5087816;28;20071;-75
2023/07/16 13:18:16;;;;;;;12.43;7.30;;;;;;;;;;5086062;28;20059;-75
2023/07/16 13:20:47;;;;;;;14.02;7.95;;;;;;;;;;5086815;28;20076;-75
2023/07/16 13:23:18;;;;;;;13.50;7.72;;;;;;;;;;5087805;28;20540;-75
2023/07/16 13:25:51;;;;;;;14.23;7.03;;;;;;;;;;5087532;28;20059;-75
2023/07/16 13:28:23;;;;;;;12.13;6.68;;;;;;;;;;5087119;28;20051;-75
2023/07/16 13:30:54;;;;;;;15.15;7.35;;;;;;;;;;5087450;28;20040;-75
2023/07/16 13:33:25;;;;;;;12.00;6.78;;;;;;;;;;5087513;28;20048;-76
2023/07/16 13:35:59;;;;;;;8.57;6.40;;;;;;;;;;5087681;28;20526;-75
2023/07/16 13:38:30;;;;;;;14.65;9.85;;;;;;;;;;5087695;28;20510;-75
2023/07/16 13:41:01;;;;;;;10.23;7.03;;;;;;;;;;5087739;28;20530;-75
2023/07/16 13:43:31;;;;;;;11.90;6.50;;;;;;;;;;5087277;28;20491;-75
2023/07/16 13:46:03;;;;;;;11.05;6.97;;;;;;;;;;5088150;28;20048;-75
2023/07/16 13:48:33;;;;;;;11.45;7.40;;;;;;;;;;5087639;28;20047;-74
2023/07/16 13:51:24;;;;;;;17.92;7.43;;;;;;;;;;5087052;28;20047;-75
2023/07/16 13:53:54;;;;;;;11.65;7.07;;;;;;;;;;5088335;28;20043;-75
2023/07/16 13:56:26;;;;;;;13.77;7.65;;;;;;;;;;5087769;28;20052;-75
2023/07/16 13:58:55;;;;;;;13.15;7.00;;;;;;;;;;5087583;28;20526;-75
2023/07/16 14:01:26;;;;;;;13.10;6.47;;;;;;;;;;5086651;28;20044;-76
2023/07/16 14:03:56;;;;;;;9.23;6.35;;;;;;;;;;5085630;28;20533;-75
2023/07/16 14:06:28;;;;;;;9.23;6.20;;;;;;;;;;5086779;28;20418;-75
2023/07/16 14:08:59;;;;;;;9.55;6.60;;;;;;;;;;5102462;28;20044;-75
2023/07/16 14:11:30;;;;;;;14.52;6.95;;;;;;;;;;5086727;28;20044;-75
2023/07/16 14:14:01;;;;;;;16.75;6.65;;;;;;;;;;5086980;28;20043;-75
2023/07/16 14:16:31;;;;;;;9.65;6.18;;;;;;;;;;5086299;28;20333;-76
2023/07/16 14:19:02;;;;;;;12.40;7.82;;;;;;;;;;5084960;28;20507;-75
2023/07/16 14:21:33;;;;;;;12.80;6.40;;;;;;;;;;5086728;28;20044;-76
2023/07/16 14:24:03;;;;;;;12.70;6.35;;;;;;;;;;5086622;28;20059;-74
2023/07/16 14:26:34;;;;;;;12.57;7.20;;;;;;;;;;5086557;28;20044;-76
2023/07/16 14:29:05;;;;;;;9.02;6.95;;;;;;;;;;5086944;28;20063;-75
2023/07/16 14:31:36;;;;;;;11.30;6.93;;;;;;;;;;5086198;28;20426;-75
2023/07/16 14:34:06;;;;;;;15.25;8.63;;;;;;;;;;5086521;28;20064;-76
2023/07/16 14:36:36;;;;;;;12.45;8.15;;;;;;;;;;5086440;28;20519;-76
2023/07/16 14:39:07;;;;;;;14.45;6.35;;;;;;;;;;5084284;28;20062;-77
2023/07/16 14:41:37;;;;;;;10.63;7.03;;;;;;;;;;5086297;28;20052;-75
2023/07/16 14:44:07;;;;;;;9.43;6.55;;;;;;;;;;5086677;28;20060;-75
2023/07/16 14:46:39;;;;;;;10.73;6.65;;;;;;;;;;5101278;28;20055;-75
2023/07/16 14:49:09;;;;;;;11.48;6.20;;;;;;;;;;5086766;28;20040;-75
2023/07/16 14:51:40;;;;;;;9.63;5.80;;;;;;;;;;5101150;28;20755;-76
2023/07/16 14:54:11;;;;;;;10.65;5.93;;;;;;;;;;5086098;28;20411;-76
2023/07/16 14:56:40;;;;;;;12.77;4.78;;;;;;;;;;5085860;28;20055;-76
2023/07/16 14:59:11;;;;;;;9.27;5.18;;;;;;;;;;5086506;28;20044;-75
2023/07/16 15:01:42;;;;;;;8.15;4.88;;;;;;;;;;5086706;28;20523;-75
2023/07/16 15:04:13;;;;;;;7.63;4.97;;;;;;;;;;5084070;28;20048;-75
2023/07/16 15:06:47;;;;;;;6.50;4.65;;;;;;;;;;5085796;28;20052;-74